Time;durP1;ratioP1;P1;durP2;ratioP2;P2;SDS_P1;SDS_P2;PMS_P1;PMS_P2;Temp;Humidity;BMP_temperature;BMP_pressure;BME280_temperature;BME280_humidity;BME280_pressure;Samples;Min_cycle;Max_cycle;Signal;HPM_P1;HPM_P2
2024/03/24 00:01:07;;;;;;;6.47;2.90;;;6.70;99.90;;;;;;4965871;28;20517;-64
2024/03/24 00:03:53;;;;;;;4.32;2.97;;;6.60;99.90;;;;;;4960603;28;20045;-64
2024/03/24 00:06:39;;;;;;;6.15;3.38;;;6.70;99.90;;;;;;4952163;29;20514;-64
2024/03/24 00:09:25;;;;;;;4.70;3.08;;;6.60;99.90;;;;;;4955054;28;20118;-64
2024/03/24 00:12:11;;;;;;;6.38;3.25;;;6.70;99.90;;;;;;4986902;28;20072;-64
2024/03/24 00:14:57;;;;;;;5.03;3.40;;;6.70;99.90;;;;;;4959474;28;20134;-63
2024/03/24 00:17:43;;;;;;;5.82;3.40;;;6.70;99.90;;;;;;4939463;29;20495;-64
2024/03/24 00:20:29;;;;;;;7.35;3.45;;;6.60;99.90;;;;;;4955780;28;20402;-64
2024/03/24 00:23:15;;;;;;;5.50;3.20;;;6.60;99.90;;;;;;5022266;28;20484;-64
2024/03/24 00:26:01;;;;;;;8.50;3.75;;;6.60;99.90;;;;;;4990267;28;20041;-64
2024/03/24 00:28:47;;;;;;;5.57;3.40;;;6.60;99.90;;;;;;4972106;28;20082;-63
2024/03/24 00:31:34;;;;;;;5.50;3.10;;;6.70;99.90;;;;;;4985933;28;20057;-64
2024/03/24 00:34:20;;;;;;;5.80;3.55;;;6.70;99.90;;;;;;5037816;28;20120;-63
2024/03/24 00:37:06;;;;;;;7.13;3.25;;;6.60;99.90;;;;;;4962424;28;20047;-63
2024/03/24 00:39:52;;;;;;;5.55;3.22;;;6.60;99.90;;;;;;4994703;28;20039;-63
2024/03/24 00:42:39;;;;;;;5.57;3.33;;;6.60;99.90;;;;;;4967525;28;20108;-63
2024/03/24 00:45:25;;;;;;;5.30;3.35;;;6.60;99.90;;;;;;4970071;28;20047;-64
2024/03/24 00:48:11;;;;;;;7.32;3.67;;;6.70;99.90;;;;;;4955619;28;20117;-63
2024/03/24 00:50:57;;;;;;;5.63;3.35;;;6.70;99.90;;;;;;4952965;29;20047;-63
2024/03/24 00:53:42;;;;;;;4.55;3.30;;;6.70;99.90;;;;;;4952649;28;20051;-63
2024/03/24 00:56:28;;;;;;;6.57;3.55;;;6.80;99.90;;;;;;5019012;28;20062;-64
2024/03/24 00:59:15;;;;;;;4.80;3.28;;;6.80;99.90;;;;;;5008832;28;20041;-64
2024/03/24 01:02:01;;;;;;;5.30;3.00;;;6.80;99.90;;;;;;4971428;28;20096;-64
2024/03/24 01:04:47;;;;;;;8.23;3.95;;;6.80;99.90;;;;;;4956657;28;20414;-63
2024/03/24 01:07:32;;;;;;;4.75;3.45;;;6.90;99.90;;;;;;4957046;28;20407;-64
2024/03/24 01:10:18;;;;;;;7.15;3.13;;;6.90;99.90;;;;;;4957681;28;20051;-64
2024/03/24 01:13:05;;;;;;;5.07;3.45;;;6.90;99.90;;;;;;4969735;28;20088;-63
2024/03/24 01:15:52;;;;;;;5.72;3.63;;;6.90;99.90;;;;;;4974378;28;20039;-63
2024/03/24 01:18:38;;;;;;;5.43;3.30;;;6.90;99.90;;;;;;5017693;28;20038;-63
2024/03/24 01:21:24;;;;;;;7.28;3.25;;;6.80;99.90;;;;;;4962319;28;20138;-62
2024/03/24 01:24:10;;;;;;;5.53;3.35;;;6.80;99.90;;;;;;4953851;28;20046;-63
2024/03/24 01:26:56;;;;;;;7.13;4.38;;;6.70;99.90;;;;;;4957976;28;20039;-64
2024/03/24 01:29:42;;;;;;;4.65;3.13;;;6.70;99.90;;;;;;4966705;28;20035;-64
2024/03/24 01:32:28;;;;;;;10.05;4.15;;;6.70;99.90;;;;;;4962561;28;20082;-64
2024/03/24 01:35:15;;;;;;;5.90;3.50;;;6.70;99.90;;;;;;4970327;28;20521;-64
2024/03/24 01:38:01;;;;;;;5.85;3.70;;;6.60;99.90;;;;;;4968885;28;20035;-64
2024/03/24 01:40:48;;;;;;;6.97;3.67;;;6.60;99.90;;;;;;4978208;28;20531;-63
2024/03/24 01:43:34;;;;;;;5.70;3.50;;;6.50;99.80;;;;;;4958084;28;20486;-65
2024/03/24 01:46:20;;;;;;;6.20;4.07;;;6.40;99.90;;;;;;4950544;28;20066;-64
2024/03/24 01:49:06;;;;;;;4.82;3.15;;;6.50;99.90;;;;;;4965576;28;20492;-64
2024/03/24 01:51:52;;;;;;;5.40;3.50;;;6.50;99.90;;;;;;4969770;28;20077;-63
2024/03/24 01:54:38;;;;;;;6.55;3.38;;;6.40;99.90;;;;;;4960000;28;20054;-62
2024/03/24 01:57:24;;;;;;;6.75;3.45;;;6.40;99.90;;;;;;4961390;28;20045;-63
2024/03/24 02:00:11;;;;;;;5.05;3.65;;;6.30;99.90;;;;;;4968520;28;20547;-63
2024/03/24 02:02:57;;;;;;;5.65;3.35;;;6.30;99.90;;;;;;4955296;28;20495;-63
2024/03/24 02:05:43;;;;;;;6.00;3.60;;;6.30;99.90;;;;;;4955879;28;20055;-63
2024/03/24 02:08:30;;;;;;;5.35;3.88;;;6.20;99.90;;;;;;4954280;28;20043;-65
2024/03/24 02:11:16;;;;;;;6.07;3.28;;;6.20;99.90;;;;;;4962500;28;20571;-64
2024/03/24 02:14:02;;;;;;;6.22;3.70;;;6.20;99.90;;;;;;4959531;28;20446;-69
2024/03/24 02:16:50;;;;;;;5.57;3.40;;;6.20;99.90;;;;;;4956748;28;20118;-70
2024/03/24 02:19:36;;;;;;;4.75;3.60;;;6.20;99.90;;;;;;4966639;28;20043;-69
2024/03/24 02:22:22;;;;;;;5.28;3.47;;;6.10;99.90;;;;;;4964210;28;20042;-68
2024/03/24 02:25:08;;;;;;;5.20;3.85;;;6.10;99.90;;;;;;5020391;28;20043;-69
2024/03/24 02:27:54;;;;;;;5.38;3.58;;;6.10;99.90;;;;;;4970751;28;20039;-70
2024/03/24 02:30:40;;;;;;;5.85;3.85;;;6.10;99.90;;;;;;4965599;28;20043;-70
2024/03/24 02:33:26;;;;;;;5.13;3.40;;;6.10;99.90;;;;;;4972482;28;20421;-69
2024/03/24 02:36:12;;;;;;;9.05;3.33;;;6.00;99.90;;;;;;4959636;28;20042;-69
2024/03/24 02:38:58;;;;;;;6.60;4.10;;;6.00;99.90;;;;;;5033265;28;20122;-70
2024/03/24 02:41:44;;;;;;;8.38;3.85;;;5.90;99.90;;;;;;4960705;28;20187;-69
2024/03/24 02:44:30;;;;;;;6.65;3.80;;;6.00;99.90;;;;;;4958487;28;20051;-67
2024/03/24 02:47:16;;;;;;;7.32;4.03;;;5.90;99.90;;;;;;4951847;28;20483;-63
2024/03/24 02:50:02;;;;;;;5.18;3.20;;;5.90;99.90;;;;;;4949914;28;20071;-64
2024/03/24 02:52:48;;;;;;;6.10;3.70;;;5.90;99.90;;;;;;4971682;28;20063;-64
2024/03/24 02:55:34;;;;;;;6.18;4.38;;;5.90;99.90;;;;;;4962678;28;20038;-64
2024/03/24 02:58:20;;;;;;;6.63;3.88;;;5.90;99.90;;;;;;4968989;28;20054;-65
2024/03/24 03:01:06;;;;;;;9.05;4.28;;;5.90;99.90;;;;;;4965720;28;20078;-66
2024/03/24 03:03:52;;;;;;;5.85;3.75;;;5.90;99.90;;;;;;4959226;28;20045;-65
2024/03/24 03:06:41;;;;;;;6.38;4.30;;;5.90;99.90;;;;;;4927760;28;20113;-65
2024/03/24 03:09:27;;;;;;;5.50;3.60;;;5.80;99.90;;;;;;4931259;28;20502;-66
2024/03/24 03:12:13;;;;;;;5.45;3.53;;;5.80;99.90;;;;;;4930346;29;20059;-66
2024/03/24 03:14:58;;;;;;;6.65;3.70;;;5.80;99.90;;;;;;4912744;29;20051;-66
2024/03/24 03:17:44;;;;;;;4.97;3.50;;;5.80;99.90;;;;;;4913051;29;20045;-65
2024/03/24 03:20:30;;;;;;;5.55;3.72;;;5.80;99.90;;;;;;4912993;29;20032;-65
2024/03/24 03:23:16;;;;;;;5.93;3.50;;;5.90;99.90;;;;;;4912354;29;20044;-65
2024/03/24 03:26:02;;;;;;;5.10;3.60;;;5.80;99.90;;;;;;4928680;28;20040;-65
2024/03/24 03:28:48;;;;;;;5.63;3.83;;;5.80;99.90;;;;;;4927052;28;20082;-65
2024/03/24 03:31:34;;;;;;;7.07;4.43;;;5.90;99.90;;;;;;4919091;29;20436;-66
2024/03/24 03:34:21;;;;;;;7.03;3.80;;;5.90;99.90;;;;;;4923066;28;20050;-65
2024/03/24 03:37:08;;;;;;;5.53;3.78;;;5.90;99.90;;;;;;4921739;29;20515;-65
2024/03/24 03:39:54;;;;;;;7.07;3.58;;;5.90;99.90;;;;;;4927933;28;20040;-65
2024/03/24 03:42:40;;;;;;;7.60;4.28;;;5.80;99.90;;;;;;4926507;29;20075;-65
2024/03/24 03:45:26;;;;;;;6.50;4.38;;;5.80;99.90;;;;;;4920798;28;20058;-65
2024/03/24 03:48:12;;;;;;;6.28;4.18;;;5.80;99.90;;;;;;4914528;29;20055;-66
2024/03/24 03:51:00;;;;;;;5.47;3.95;;;5.80;99.90;;;;;;4931493;29;20474;-67
2024/03/24 03:53:49;;;;;;;4.63;3.70;;;5.80;99.90;;;;;;4931308;29;20142;-66
2024/03/24 03:56:35;;;;;;;5.35;3.83;;;5.80;99.90;;;;;;4945525;28;20051;-66
2024/03/24 03:59:21;;;;;;;4.85;3.50;;;5.80;99.90;;;;;;4912269;29;20439;-67
2024/03/24 04:02:07;;;;;;;6.07;3.70;;;5.80;99.90;;;;;;4965043;28;20501;-66
2024/03/24 04:04:54;;;;;;;6.63;3.80;;;5.80;99.90;;;;;;4935320;29;20391;-65
2024/03/24 04:07:41;;;;;;;8.27;4.20;;;5.80;99.90;;;;;;4945259;28;20039;-66
2024/03/24 04:10:27;;;;;;;5.78;3.50;;;5.70;99.90;;;;;;4952707;28;20043;-66
2024/03/24 04:13:13;;;;;;;6.40;4.43;;;5.70;99.90;;;;;;4960361;28;20054;-64
2024/03/24 04:15:59;;;;;;;5.97;3.70;;;5.70;99.90;;;;;;4956296;28;20043;-64
2024/03/24 04:18:46;;;;;;;6.20;3.55;;;5.80;99.90;;;;;;4996804;28;20720;-65
2024/03/24 04:21:32;;;;;;;6.57;4.32;;;5.70;99.90;;;;;;4962730;28;20050;-65
2024/03/24 04:24:18;;;;;;;6.05;3.40;;;5.70;99.90;;;;;;4971064;28;20046;-65
2024/03/24 04:27:04;;;;;;;5.68;3.70;;;5.70;99.90;;;;;;5029152;28;20078;-65
2024/03/24 04:29:50;;;;;;;5.38;4.03;;;5.70;99.90;;;;;;5008876;28;20487;-63
2024/03/24 04:32:36;;;;;;;6.97;3.88;;;5.70;99.90;;;;;;4955490;28;20055;-65
2024/03/24 04:35:22;;;;;;;6.78;3.72;;;5.70;99.90;;;;;;4967437;28;20042;-65
2024/03/24 04:38:09;;;;;;;5.47;3.67;;;5.70;99.90;;;;;;4962357;28;20475;-64
2024/03/24 04:40:55;;;;;;;6.63;3.80;;;5.60;99.90;;;;;;4957546;28;20081;-64
2024/03/24 04:43:41;;;;;;;6.05;3.92;;;5.60;99.90;;;;;;4971795;28;20043;-65
2024/03/24 04:46:27;;;;;;;5.50;3.78;;;5.60;99.90;;;;;;4971102;28;20104;-64
2024/03/24 04:49:13;;;;;;;5.13;3.67;;;5.60;99.90;;;;;;4973760;28;20129;-65
2024/03/24 04:51:59;;;;;;;9.38;4.88;;;5.60;99.90;;;;;;4981609;28;20065;-65
2024/03/24 04:54:45;;;;;;;5.35;3.95;;;5.60;99.90;;;;;;4968565;28;20045;-65
2024/03/24 04:57:31;;;;;;;6.18;3.85;;;5.60;99.90;;;;;;5047806;28;20047;-64
2024/03/24 05:00:18;;;;;;;6.72;3.97;;;5.70;99.90;;;;;;4980098;28;20041;-65
2024/03/24 05:03:04;;;;;;;7.32;4.32;;;5.60;99.90;;;;;;4957025;28;20047;-64
2024/03/24 05:05:50;;;;;;;8.25;4.20;;;5.70;99.90;;;;;;4982141;28;20033;-64
2024/03/24 05:08:37;;;;;;;6.20;4.05;;;5.60;99.90;;;;;;5050283;28;20043;-64
2024/03/24 05:11:23;;;;;;;6.97;4.32;;;5.70;99.90;;;;;;4980856;28;20482;-65
2024/03/24 05:14:09;;;;;;;5.75;4.03;;;5.70;99.90;;;;;;4952880;28;20058;-64
2024/03/24 05:16:54;;;;;;;7.75;4.60;;;5.80;99.90;;;;;;4969629;28;20114;-63
2024/03/24 05:19:40;;;;;;;6.72;4.10;;;5.80;99.90;;;;;;4960273;28;20047;-63
2024/03/24 05:22:26;;;;;;;7.03;3.72;;;5.80;99.90;;;;;;5012465;28;20048;-64
2024/03/24 05:25:12;;;;;;;5.20;3.55;;;5.80;99.90;;;;;;4987955;28;20043;-64
2024/03/24 05:27:58;;;;;;;9.48;3.92;;;5.90;99.90;;;;;;4966906;28;20085;-64
2024/03/24 05:30:46;;;;;;;6.85;3.55;;;5.90;99.90;;;;;;4959768;28;20434;-64
2024/03/24 05:33:32;;;;;;;6.53;3.70;;;6.00;99.90;;;;;;4963630;28;20051;-64
2024/03/24 05:36:18;;;;;;;8.60;4.40;;;6.00;99.90;;;;;;4970007;28;20054;-64
2024/03/24 05:39:04;;;;;;;7.53;3.97;;;6.00;99.90;;;;;;4986086;28;20044;-64
2024/03/24 05:41:50;;;;;;;5.82;3.75;;;6.00;99.90;;;;;;4955325;28;20104;-64
2024/03/24 05:44:36;;;;;;;6.07;3.65;;;6.10;99.90;;;;;;4997445;28;20039;-64
2024/03/24 05:47:22;;;;;;;6.50;4.22;;;6.10;99.90;;;;;;4969807;28;20042;-64
2024/03/24 05:50:08;;;;;;;8.10;4.32;;;6.10;99.90;;;;;;4964943;28;20035;-64
2024/03/24 05:52:54;;;;;;;8.18;4.25;;;6.10;99.90;;;;;;4960957;28;20055;-64
2024/03/24 05:55:40;;;;;;;7.25;4.07;;;6.20;99.90;;;;;;4979662;28;20074;-64
2024/03/24 05:58:26;;;;;;;6.43;3.90;;;6.20;99.90;;;;;;4992975;28;20046;-64
2024/03/24 06:01:12;;;;;;;6.55;3.85;;;6.30;99.90;;;;;;4940690;28;20044;-64
2024/03/24 06:03:58;;;;;;;5.75;3.72;;;6.30;99.90;;;;;;4958581;28;20035;-64
2024/03/24 06:06:44;;;;;;;6.88;3.38;;;6.30;99.90;;;;;;4951829;29;20059;-64
2024/03/24 06:09:30;;;;;;;5.20;3.97;;;6.40;99.90;;;;;;4957208;28;20051;-65
2024/03/24 06:12:16;;;;;;;6.07;3.78;;;6.30;99.90;;;;;;4951689;28;20054;-65
2024/03/24 06:15:02;;;;;;;5.93;3.55;;;6.40;99.90;;;;;;4961510;28;20034;-64
2024/03/24 06:17:48;;;;;;;5.82;3.80;;;6.40;99.90;;;;;;5053931;28;20809;-61
2024/03/24 06:20:35;;;;;;;6.63;4.07;;;6.40;99.90;;;;;;4959248;28;20039;-61
2024/03/24 06:23:21;;;;;;;6.70;4.63;;;6.40;99.90;;;;;;4973624;28;20046;-61
2024/03/24 06:26:08;;;;;;;6.82;4.07;;;6.40;99.90;;;;;;4957962;28;20043;-60
2024/03/24 06:28:53;;;;;;;6.28;4.18;;;6.50;99.90;;;;;;4964167;28;20042;-60
2024/03/24 06:31:39;;;;;;;9.25;4.15;;;6.60;99.90;;;;;;4969701;28;20061;-62
2024/03/24 06:34:25;;;;;;;5.18;3.63;;;6.60;99.90;;;;;;4952098;28;20529;-62
2024/03/24 06:37:11;;;;;;;6.43;3.63;;;6.60;99.90;;;;;;4981500;28;20530;-62
2024/03/24 06:39:57;;;;;;;6.13;3.85;;;6.70;99.90;;;;;;5008170;28;20461;-62
2024/03/24 06:42:59;;;;;;;6.93;3.75;;;6.80;99.90;;;;;;5072805;28;20443;-62
2024/03/24 06:45:46;;;;;;;5.55;3.47;;;6.80;99.90;;;;;;4995615;28;20047;-61
2024/03/24 06:48:32;;;;;;;5.57;3.45;;;6.90;99.90;;;;;;5038033;28;20044;-61
2024/03/24 06:51:18;;;;;;;7.40;4.00;;;6.90;99.90;;;;;;4994348;28;20055;-62
2024/03/24 06:54:04;;;;;;;5.30;3.20;;;7.00;99.90;;;;;;4954119;28;20046;-61
2024/03/24 06:56:50;;;;;;;5.45;3.20;;;7.00;99.90;;;;;;4954380;28;20395;-63
2024/03/24 06:59:36;;;;;;;5.75;3.58;;;7.00;99.90;;;;;;5000231;28;20112;-67
2024/03/24 07:02:22;;;;;;;5.13;3.50;;;7.20;99.90;;;;;;4963358;28;20104;-69
2024/03/24 07:05:08;;;;;;;5.13;3.50;;;7.20;99.90;;;;;;4967991;28;20414;-70
2024/03/24 07:07:54;;;;;;;5.43;3.45;;;7.20;99.90;;;;;;4954815;28;20184;-70
2024/03/24 07:10:40;;;;;;;5.20;3.63;;;7.30;99.90;;;;;;4969077;28;20043;-65
2024/03/24 07:13:26;;;;;;;5.57;3.20;;;7.40;99.90;;;;;;4978658;28;20055;-67
2024/03/24 07:16:12;;;;;;;6.65;3.58;;;7.40;99.90;;;;;;4958610;28;20097;-65
2024/03/24 07:18:57;;;;;;;4.40;3.10;;;7.50;99.90;;;;;;4954636;28;20483;-65
2024/03/24 07:21:45;;;;;;;5.50;3.08;;;7.50;99.90;;;;;;4951353;28;20538;-64
2024/03/24 07:24:31;;;;;;;4.68;2.70;;;7.60;99.90;;;;;;4964731;28;20058;-64
2024/03/24 07:27:18;;;;;;;4.93;2.80;;;7.60;99.80;;;;;;4952546;28;20054;-63
2024/03/24 07:30:06;;;;;;;4.57;2.88;;;7.70;99.70;;;;;;4970969;28;20410;-63
2024/03/24 07:32:52;;;;;;;6.40;2.90;;;7.80;99.70;;;;;;4960628;28;20137;-64
2024/03/24 07:35:38;;;;;;;6.00;2.50;;;7.90;99.60;;;;;;4959818;28;20036;-64
2024/03/24 07:38:24;;;;;;;4.90;2.95;;;7.90;99.60;;;;;;4953569;28;20137;-64
2024/03/24 07:41:10;;;;;;;4.40;3.00;;;8.00;99.50;;;;;;4965902;28;20039;-64
2024/03/24 07:43:56;;;;;;;3.30;2.50;;;8.10;99.40;;;;;;4974152;28;20129;-64
2024/03/24 07:46:41;;;;;;;5.53;3.30;;;8.10;99.30;;;;;;4967498;28;20043;-64
2024/03/24 07:49:27;;;;;;;4.78;3.38;;;8.20;99.20;;;;;;4968779;28;20054;-63
2024/03/24 07:52:13;;;;;;;5.95;2.50;;;8.30;99.20;;;;;;4967434;28;20069;-63
2024/03/24 07:54:59;;;;;;;4.32;3.17;;;8.40;99.20;;;;;;4962740;28;20034;-63
2024/03/24 07:57:45;;;;;;;3.20;2.63;;;8.50;99.10;;;;;;4957820;28;20070;-63
2024/03/24 08:00:31;;;;;;;3.75;2.78;;;8.60;99.00;;;;;;4961951;28;20042;-62
2024/03/24 08:03:17;;;;;;;3.85;2.67;;;8.70;98.80;;;;;;4971301;28;20047;-64
2024/03/24 08:06:03;;;;;;;5.10;2.95;;;8.70;98.70;;;;;;4970504;28;20043;-63
2024/03/24 08:08:49;;;;;;;5.47;2.72;;;8.80;98.60;;;;;;4957177;28;20074;-72
2024/03/24 08:11:35;;;;;;;4.13;2.40;;;8.90;98.60;;;;;;4951492;28;21137;-67
2024/03/24 08:14:21;;;;;;;3.30;2.30;;;9.00;98.60;;;;;;4975933;28;20098;-67
2024/03/24 08:17:07;;;;;;;5.38;2.60;;;9.00;98.60;;;;;;5023191;28;20456;-66
2024/03/24 08:19:53;;;;;;;5.97;2.78;;;9.10;98.30;;;;;;5003404;28;20388;-67
2024/03/24 08:22:39;;;;;;;6.95;2.95;;;9.10;98.20;;;;;;4964134;28;20039;-64
2024/03/24 08:25:25;;;;;;;3.67;2.65;;;9.10;98.20;;;;;;5012685;28;20083;-65
2024/03/24 08:28:11;;;;;;;3.15;2.38;;;9.20;98.10;;;;;;4987811;28;20047;-67
2024/03/24 08:30:57;;;;;;;4.53;2.45;;;9.20;97.80;;;;;;4972652;28;20165;-68
2024/03/24 08:33:43;;;;;;;4.38;2.47;;;9.30;97.70;;;;;;5029771;28;20127;-68
2024/03/24 08:36:29;;;;;;;4.55;2.75;;;9.30;97.60;;;;;;4990644;28;20041;-68
2024/03/24 08:39:15;;;;;;;2.80;1.95;;;9.30;97.50;;;;;;5011462;28;20117;-67
2024/03/24 08:42:01;;;;;;;4.32;2.55;;;9.40;97.30;;;;;;4957509;28;20116;-68
2024/03/24 08:44:47;;;;;;;3.30;2.60;;;9.50;97.20;;;;;;4957631;28;20071;-68
2024/03/24 08:47:34;;;;;;;4.65;2.50;;;9.50;97.20;;;;;;4969802;28;20054;-68
2024/03/24 08:50:20;;;;;;;4.35;2.45;;;9.60;97.20;;;;;;4974603;28;20383;-69
2024/03/24 08:53:08;;;;;;;4.03;2.33;;;9.70;97.30;;;;;;4953457;28;20478;-69
2024/03/24 08:55:54;;;;;;;3.38;2.10;;;9.80;97.20;;;;;;4957480;28;20051;-68
2024/03/24 08:58:40;;;;;;;3.10;2.40;;;9.90;97.10;;;;;;4964947;28;20115;-69
2024/03/24 09:01:26;;;;;;;6.85;2.78;;;10.00;96.90;;;;;;4963944;28;20075;-69
2024/03/24 09:04:12;;;;;;;3.88;2.55;;;10.10;96.90;;;;;;4967060;28;20384;-68
2024/03/24 09:06:58;;;;;;;4.30;2.92;;;10.20;96.70;;;;;;4977473;28;20049;-68
2024/03/24 09:09:44;;;;;;;5.32;2.50;;;10.30;96.50;;;;;;4985574;28;20086;-68
2024/03/24 09:12:30;;;;;;;3.08;2.10;;;10.40;96.40;;;;;;4950583;28;20055;-69
2024/03/24 09:15:18;;;;;;;4.85;2.40;;;10.50;96.30;;;;;;4964242;28;20043;-69
2024/03/24 09:18:04;;;;;;;3.50;2.22;;;10.60;96.20;;;;;;4962314;28;20061;-70
2024/03/24 09:20:50;;;;;;;5.35;2.38;;;10.70;96.10;;;;;;4957499;28;20057;-69
2024/03/24 09:23:36;;;;;;;4.28;2.90;;;10.80;95.90;;;;;;5024904;28;20097;-69
2024/03/24 09:26:24;;;;;;;3.40;2.25;;;10.90;95.80;;;;;;4962294;28;20038;-68
2024/03/24 09:29:09;;;;;;;3.30;2.00;;;10.90;95.70;;;;;;4962784;28;20073;-68
2024/03/24 09:31:57;;;;;;;4.78;2.60;;;11.00;95.70;;;;;;4965950;28;20508;-69
2024/03/24 09:34:43;;;;;;;3.10;2.25;;;10.90;95.60;;;;;;4952635;28;20097;-63
2024/03/24 09:37:29;;;;;;;6.75;3.05;;;10.90;95.50;;;;;;4967109;28;20049;-63
2024/03/24 09:40:15;;;;;;;3.67;2.33;;;10.80;95.80;;;;;;5061830;28;20039;-62
2024/03/24 09:43:02;;;;;;;4.40;2.92;;;10.70;95.80;;;;;;5017894;28;20122;-62
2024/03/24 09:45:49;;;;;;;3.97;2.60;;;10.70;95.90;;;;;;4954997;28;20047;-62
2024/03/24 09:48:38;;;;;;;4.45;2.63;;;10.70;95.90;;;;;;4988887;28;20416;-62
2024/03/24 09:51:24;;;;;;;6.65;2.50;;;10.60;95.80;;;;;;5036052;28;20039;-63
2024/03/24 09:54:12;;;;;;;3.78;2.65;;;10.60;96.00;;;;;;4953186;28;20074;-65
2024/03/24 09:56:59;;;;;;;3.30;2.22;;;10.60;96.10;;;;;;4967245;28;20047;-64
2024/03/24 09:59:48;;;;;;;4.13;2.58;;;10.50;96.20;;;;;;4968278;28;20451;-65
2024/03/24 10:02:34;;;;;;;3.60;2.72;;;10.50;96.30;;;;;;4951993;28;20414;-65
2024/03/24 10:05:21;;;;;;;6.05;2.75;;;10.60;96.40;;;;;;4960408;28;20051;-65
2024/03/24 10:08:09;;;;;;;4.97;2.78;;;10.50;96.60;;;;;;4954879;28;20042;-65
2024/03/24 10:10:55;;;;;;;4.85;2.50;;;10.60;96.70;;;;;;4966379;28;20082;-65
2024/03/24 10:13:44;;;;;;;4.38;2.75;;;10.50;96.70;;;;;;4960970;28;20048;-65
2024/03/24 10:16:30;;;;;;;4.45;2.58;;;10.50;96.50;;;;;;4966861;28;20128;-65
2024/03/24 10:19:17;;;;;;;3.88;2.75;;;10.40;96.50;;;;;;4970771;28;20046;-66
2024/03/24 10:22:03;;;;;;;5.07;2.55;;;10.40;96.60;;;;;;4956955;28;20035;-64
2024/03/24 10:24:48;;;;;;;3.20;2.55;;;10.30;96.60;;;;;;4969301;28;20070;-65
2024/03/24 10:27:34;;;;;;;4.35;2.10;;;10.20;96.80;;;;;;4951166;28;20079;-65
2024/03/24 10:30:21;;;;;;;2.92;1.80;;;10.10;96.80;;;;;;4950358;29;20050;-65
2024/03/24 10:33:07;;;;;;;2.60;2.00;;;10.00;96.70;;;;;;4971221;28;20050;-66
2024/03/24 10:35:57;;;;;;;3.30;2.13;;;10.00;96.70;;;;;;4957582;28;20046;-64
2024/03/24 10:38:43;;;;;;;2.88;2.03;;;9.90;96.80;;;;;;4950930;28;20046;-65
2024/03/24 10:41:30;;;;;;;2.97;2.28;;;9.80;96.90;;;;;;4957451;28;20046;-65
2024/03/24 10:44:16;;;;;;;5.65;3.13;;;9.70;97.10;;;;;;4953101;28;20153;-65
2024/03/24 10:47:05;;;;;;;5.28;2.67;;;9.60;97.20;;;;;;4964674;28;20039;-65
2024/03/24 10:49:54;;;;;;;4.32;3.03;;;9.50;97.40;;;;;;4967119;28;20052;-66
2024/03/24 10:52:43;;;;;;;5.13;2.67;;;9.50;97.60;;;;;;4968486;28;20046;-65
2024/03/24 10:55:32;;;;;;;3.50;2.10;;;9.40;97.80;;;;;;4965214;28;20054;-64
2024/03/24 10:58:19;;;;;;;4.47;3.00;;;9.50;98.00;;;;;;4965326;28;20499;-65
2024/03/24 11:01:06;;;;;;;4.32;2.65;;;9.50;98.10;;;;;;4959327;28;20039;-66
2024/03/24 11:03:53;;;;;;;5.20;2.90;;;9.50;98.10;;;;;;4949609;28;20553;-65
2024/03/24 11:06:40;;;;;;;4.72;2.70;;;9.60;98.20;;;;;;4961354;28;20062;-66
2024/03/24 11:09:27;;;;;;;4.97;3.63;;;9.60;98.50;;;;;;4968014;28;20047;-65
2024/03/24 11:12:13;;;;;;;6.97;3.67;;;9.60;98.40;;;;;;4954309;28;20051;-64
2024/03/24 11:14:59;;;;;;;5.85;3.28;;;9.60;98.40;;;;;;4958216;28;20072;-64
2024/03/24 11:17:48;;;;;;;5.65;3.08;;;9.60;98.40;;;;;;4959126;28;20115;-65
2024/03/24 11:20:35;;;;;;;6.65;3.55;;;9.70;98.50;;;;;;4966088;28;20035;-64
2024/03/24 11:23:23;;;;;;;5.88;3.38;;;9.70;98.50;;;;;;4967328;28;20441;-65
2024/03/24 11:26:14;;;;;;;4.78;2.78;;;9.70;98.60;;;;;;4957828;28;20073;-65
2024/03/24 11:29:00;;;;;;;5.35;3.38;;;9.70;98.60;;;;;;4972288;28;20054;-65
2024/03/24 11:31:50;;;;;;;4.63;3.03;;;9.70;98.70;;;;;;4963191;28;20490;-65
2024/03/24 11:34:48;;;;;;;5.10;3.40;;;9.70;98.70;;;;;;4962443;28;20039;-69
2024/03/24 11:37:34;;;;;;;6.32;3.10;;;9.70;98.70;;;;;;4961164;29;20041;-70
2024/03/24 11:40:23;;;;;;;4.60;3.72;;;9.70;98.80;;;;;;4961212;28;20047;-70
2024/03/24 11:43:12;;;;;;;5.82;3.38;;;9.60;98.80;;;;;;4965784;28;20047;-71
2024/03/24 11:46:09;;;;;;;5.28;4.18;;;9.60;98.90;;;;;;4969967;28;20383;-68
2024/03/24 11:48:57;;;;;;;6.85;3.50;;;9.60;98.90;;;;;;4971427;28;20137;-69
2024/03/24 11:51:43;;;;;;;4.55;3.00;;;9.60;99.00;;;;;;4956936;28;20074;-69
2024/03/24 11:54:30;;;;;;;3.78;3.03;;;9.60;99.00;;;;;;4955488;28;20063;-69
2024/03/24 11:57:18;;;;;;;3.97;3.08;;;9.60;99.10;;;;;;4962181;28;20061;-70
2024/03/24 12:00:06;;;;;;;5.50;3.13;;;9.50;99.20;;;;;;4961207;28;20402;-69
2024/03/24 12:02:52;;;;;;;4.05;2.90;;;9.60;99.30;;;;;;4971530;28;20089;-69
2024/03/24 16:38:26;;;;;;;4.30;2.60;;;11.00;95.30;;;;;;5003835;28;20524;-71
2024/03/24 16:41:12;;;;;;;4.80;2.55;;;11.00;95.40;;;;;;4980516;28;20047;-72
2024/03/24 16:43:59;;;;;;;5.38;3.00;;;11.00;95.40;;;;;;4978396;28;20038;-68
2024/03/24 16:46:47;;;;;;;4.18;2.67;;;10.90;95.40;;;;;;4992321;28;20402;-69
2024/03/24 16:49:33;;;;;;;4.38;2.58;;;10.90;95.40;;;;;;4990619;28;20398;-69
2024/03/24 16:52:20;;;;;;;4.22;2.75;;;10.90;95.40;;;;;;4989693;28;20065;-68
2024/03/24 16:55:06;;;;;;;5.28;3.38;;;10.90;95.40;;;;;;5043525;28;20038;-68
2024/03/24 16:57:52;;;;;;;5.38;2.80;;;10.90;95.40;;;;;;5035341;28;20133;-66
2024/03/24 17:00:42;;;;;;;7.15;3.70;;;10.90;95.60;;;;;;4991097;28;20045;-64
2024/03/24 17:03:28;;;;;;;11.40;4.88;;;10.80;95.80;;;;;;5046078;28;20579;-69
2024/03/24 17:06:15;;;;;;;10.82;5.32;;;10.80;95.90;;;;;;5000960;28;20482;-68
2024/03/24 17:09:01;;;;;;;13.43;5.82;;;10.70;96.00;;;;;;4972843;28;20435;-69
2024/03/24 17:11:47;;;;;;;20.20;9.10;;;10.60;96.10;;;;;;4975724;28;20452;-69
2024/03/24 17:14:33;;;;;;;23.83;10.07;;;10.50;96.40;;;;;;4973905;28;20054;-69
2024/03/24 17:17:19;;;;;;;12.43;5.65;;;10.40;96.70;;;;;;4975681;28;20045;-69
2024/03/24 17:20:05;;;;;;;15.00;5.82;;;10.40;96.90;;;;;;5063028;28;20034;-68
2024/03/24 17:22:51;;;;;;;12.45;5.10;;;10.30;97.10;;;;;;4988470;28;20486;-68
2024/03/24 17:25:37;;;;;;;7.75;4.13;;;10.30;97.20;;;;;;4972675;28;20049;-68
2024/03/24 17:28:23;;;;;;;7.88;3.40;;;10.20;97.30;;;;;;4986489;28;20137;-68
2024/03/24 17:31:13;;;;;;;9.20;4.75;;;10.20;97.40;;;;;;5039472;28;20475;-69
2024/03/24 17:33:59;;;;;;;9.55;4.70;;;10.10;97.50;;;;;;5039483;28;20092;-69
2024/03/24 17:36:45;;;;;;;8.05;4.80;;;10.10;97.60;;;;;;4989311;28;20088;-68
2024/03/24 17:39:32;;;;;;;9.30;4.30;;;10.00;97.60;;;;;;4986167;28;20466;-69
2024/03/24 17:42:20;;;;;;;5.15;3.00;;;10.00;97.70;;;;;;4986139;28;20137;-69
2024/03/24 17:45:08;;;;;;;3.92;2.58;;;10.00;97.70;;;;;;4975216;28;20130;-69
2024/03/24 17:47:54;;;;;;;5.45;2.88;;;9.90;97.80;;;;;;5039161;28;20058;-68
2024/03/24 17:50:40;;;;;;;6.35;3.78;;;9.80;97.80;;;;;;4999907;28;20036;-66
2024/03/24 17:53:27;;;;;;;4.60;2.90;;;9.70;97.80;;;;;;5089786;28;20545;-68
2024/03/24 17:56:16;;;;;;;5.63;3.05;;;9.60;97.90;;;;;;5005858;28;20126;-69
2024/03/24 17:59:02;;;;;;;4.20;2.60;;;9.50;98.00;;;;;;4985210;28;20045;-68
2024/03/24 18:01:48;;;;;;;4.25;2.53;;;9.50;98.10;;;;;;4989492;28;20062;-72
2024/03/24 18:04:34;;;;;;;4.85;2.67;;;9.40;98.20;;;;;;4986999;28;20035;-69
2024/03/24 18:10:26;;;;;;;3.80;2.22;;;9.30;98.30;;;;;;4979425;28;20039;-67
2024/03/24 18:13:15;;;;;;;5.70;2.80;;;9.30;98.40;;;;;;4984574;28;20111;-67
2024/03/24 18:16:01;;;;;;;4.00;2.60;;;9.20;98.50;;;;;;5044791;28;20125;-67
2024/03/24 18:18:47;;;;;;;4.80;2.72;;;9.20;98.60;;;;;;4981965;28;20038;-68
2024/03/24 18:21:33;;;;;;;4.65;2.45;;;9.20;98.60;;;;;;4996755;28;20558;-68
2024/03/24 18:24:19;;;;;;;7.15;2.88;;;9.10;98.70;;;;;;4983955;28;20135;-66
2024/03/24 18:27:05;;;;;;;3.72;2.13;;;9.10;98.70;;;;;;5058968;28;20060;-67
2024/03/24 18:29:52;;;;;;;3.78;2.60;;;9.10;98.80;;;;;;4997637;28;20035;-67
2024/03/24 18:32:38;;;;;;;3.63;2.58;;;9.10;98.90;;;;;;4979231;28;20452;-67
2024/03/24 18:35:24;;;;;;;5.60;2.88;;;9.10;98.90;;;;;;4986512;28;20042;-66
2024/03/24 18:38:11;;;;;;;5.10;3.10;;;9.10;99.00;;;;;;4996664;28;20111;-66
2024/03/24 18:40:57;;;;;;;6.93;3.50;;;9.10;99.00;;;;;;4978905;28;20102;-67
2024/03/24 18:43:43;;;;;;;3.88;2.60;;;9.00;99.10;;;;;;4988219;28;20117;-67
2024/03/24 18:46:29;;;;;;;5.03;3.35;;;9.00;99.20;;;;;;5053427;28;20038;-67
2024/03/24 18:49:15;;;;;;;6.07;3.67;;;9.00;99.20;;;;;;4983248;28;20130;-66
2024/03/24 18:52:01;;;;;;;8.20;3.58;;;8.90;99.30;;;;;;4979010;28;20053;-67
2024/03/24 18:54:47;;;;;;;5.03;3.30;;;8.90;99.50;;;;;;4989068;28;20043;-66
2024/03/24 18:57:34;;;;;;;5.50;3.33;;;8.90;99.40;;;;;;4987185;28;20047;-67
2024/03/24 19:00:20;;;;;;;6.20;3.72;;;8.90;99.50;;;;;;4986189;28;20072;-67
2024/03/24 19:03:10;;;;;;;5.45;3.40;;;8.90;99.80;;;;;;4992551;28;20034;-66
2024/03/24 19:05:57;;;;;;;4.93;3.25;;;8.90;99.60;;;;;;4979602;28;20061;-67
2024/03/24 19:08:42;;;;;;;5.22;3.03;;;8.90;99.70;;;;;;4988384;28;20407;-67
2024/03/24 19:11:28;;;;;;;6.97;3.10;;;8.90;99.70;;;;;;4975817;28;20038;-66